sensor_id;sensor_type;location;lat;lon;timestamp;pressure;altitude;pressure_sealevel;temperature;humidity
8366;BME280;4220;42.502;24.188;2023-02-22T00:00:25;95112.81;;;12.26;38.59
8366;BME280;4220;42.502;24.188;2023-02-22T00:03:01;95124.13;;;12.33;38.23
8366;BME280;4220;42.502;24.188;2023-02-22T00:05:29;95113.41;;;12.28;38.80
8366;BME280;4220;42.502;24.188;2023-02-22T00:07:56;95098.13;;;12.01;39.22
8366;BME280;4220;42.502;24.188;2023-02-22T00:10:25;95120.22;;;12.01;39.32
8366;BME280;4220;42.502;24.188;2023-02-22T00:12:54;95105.28;;;11.89;39.46
8366;BME280;4220;42.502;24.188;2023-02-22T00:15:23;95103.41;;;11.77;39.90
8366;BME280;4220;42.502;24.188;2023-02-22T00:17:52;95111.44;;;11.59;40.59
8366;BME280;4220;42.502;24.188;2023-02-22T00:20:20;95106.31;;;11.58;40.36
8366;BME280;4220;42.502;24.188;2023-02-22T00:22:50;95117.59;;;11.42;40.65
8366;BME280;4220;42.502;24.188;2023-02-22T00:25:19;95096.22;;;11.37;40.94
8366;BME280;4220;42.502;24.188;2023-02-22T00:27:47;95100.34;;;11.33;41.33
8366;BME280;4220;42.502;24.188;2023-02-22T00:30:19;95098.91;;;11.18;41.38
8366;BME280;4220;42.502;24.188;2023-02-22T00:32:47;95105.63;;;11.21;41.36
8366;BME280;4220;42.502;24.188;2023-02-22T00:35:16;95104.81;;;11.21;41.59
8366;BME280;4220;42.502;24.188;2023-02-22T00:37:46;95068.22;;;10.93;41.33
8366;BME280;4220;42.502;24.188;2023-02-22T00:40:18;95109.97;;;11.15;41.53
8366;BME280;4220;42.502;24.188;2023-02-22T00:42:45;95089.38;;;10.99;41.52
8366;BME280;4220;42.502;24.188;2023-02-22T00:45:14;95104.84;;;11.02;41.89
8366;BME280;4220;42.502;24.188;2023-02-22T00:47:41;95100.66;;;10.95;42.26
8366;BME280;4220;42.502;24.188;2023-02-22T00:50:09;95060.22;;;10.63;42.07
8366;BME280;4220;42.502;24.188;2023-02-22T00:52:36;95105.81;;;10.90;42.09
8366;BME280;4220;42.502;24.188;2023-02-22T00:55:05;95104.19;;;10.89;41.69
8366;BME280;4220;42.502;24.188;2023-02-22T00:57:33;95106.41;;;10.92;42.26
8366;BME280;4220;42.502;24.188;2023-02-22T01:00:00;95097.28;;;10.88;41.94
8366;BME280;4220;42.502;24.188;2023-02-22T01:02:36;95112.22;;;10.82;42.04
8366;BME280;4220;42.502;24.188;2023-02-22T01:05:03;95098.25;;;10.75;42.73
8366;BME280;4220;42.502;24.188;2023-02-22T01:07:30;95054.56;;;10.41;42.50
8366;BME280;4220;42.502;24.188;2023-02-22T01:09:57;95107.81;;;10.58;43.12
8366;BME280;4220;42.502;24.188;2023-02-22T01:12:24;95105.44;;;10.50;43.69
8366;BME280;4220;42.502;24.188;2023-02-22T01:14:53;95098.66;;;10.36;43.67
8366;BME280;4220;42.502;24.188;2023-02-22T01:17:21;95097.03;;;10.35;43.82
8366;BME280;4220;42.502;24.188;2023-02-22T01:19:49;95103.81;;;10.31;44.24
8366;BME280;4220;42.502;24.188;2023-02-22T01:22:17;95109.34;;;10.29;43.72
8366;BME280;4220;42.502;24.188;2023-02-22T01:24:44;95108.53;;;10.29;43.94
8366;BME280;4220;42.502;24.188;2023-02-22T01:27:11;95106.47;;;10.31;43.99
8366;BME280;4220;42.502;24.188;2023-02-22T01:29:38;95117.44;;;10.34;43.69
8366;BME280;4220;42.502;24.188;2023-02-22T01:32:07;95112.66;;;10.43;43.68
8366;BME280;4220;42.502;24.188;2023-02-22T01:34:37;95105.72;;;10.42;43.60
8366;BME280;4220;42.502;24.188;2023-02-22T01:37:03;95106.03;;;10.34;43.84
8366;BME280;4220;42.502;24.188;2023-02-22T01:39:31;95097.13;;;10.28;43.65
8366;BME280;4220;42.502;24.188;2023-02-22T01:41:59;95098.94;;;10.28;44.20
8366;BME280;4220;42.502;24.188;2023-02-22T01:44:28;95099.63;;;10.23;43.86
8366;BME280;4220;42.502;24.188;2023-02-22T01:46:56;95109.41;;;10.23;44.35
8366;BME280;4220;42.502;24.188;2023-02-22T01:49:28;95095.13;;;10.24;44.22
8366;BME280;4220;42.502;24.188;2023-02-22T01:51:58;95104.91;;;10.23;44.39
8366;BME280;4220;42.502;24.188;2023-02-22T01:54:30;95091.88;;;10.22;44.12
8366;BME280;4220;42.502;24.188;2023-02-22T01:57:02;95101.88;;;10.20;44.60
8366;BME280;4220;42.502;24.188;2023-02-22T01:59:33;95100.13;;;10.14;44.16
8366;BME280;4220;42.502;24.188;2023-02-22T02:02:01;95105.41;;;10.14;43.90
8366;BME280;4220;42.502;24.188;2023-02-22T02:04:32;95098.28;;;10.14;43.84
8366;BME280;4220;42.502;24.188;2023-02-22T02:07:01;95100.50;;;10.11;44.06
8366;BME280;4220;42.502;24.188;2023-02-22T02:09:35;95089.16;;;10.04;43.77
8366;BME280;4220;42.502;24.188;2023-02-22T02:12:07;95091.38;;;10.07;43.70
8366;BME280;4220;42.502;24.188;2023-02-22T02:14:36;95093.59;;;10.10;43.90
8366;BME280;4220;42.502;24.188;2023-02-22T02:17:06;95094.41;;;10.10;44.00
8366;BME280;4220;42.502;24.188;2023-02-22T02:19:43;95072.38;;;9.92;43.58
8366;BME280;4220;42.502;24.188;2023-02-22T02:22:28;95090.41;;;10.01;44.02
8366;BME280;4220;42.502;24.188;2023-02-22T02:25:29;95095.72;;;10.01;43.95
8366;BME280;4220;42.502;24.188;2023-02-22T02:28:21;95066.03;;;9.93;43.80
8366;BME280;4220;42.502;24.188;2023-02-22T02:34:15;95104.25;;;9.78;43.94
8366;BME280;4220;42.502;24.188;2023-02-22T02:36:51;95120.56;;;9.75;44.53
8366;BME280;4220;42.502;24.188;2023-02-22T02:39:25;95128.38;;;9.70;44.80
8366;BME280;4220;42.502;24.188;2023-02-22T02:41:55;95113.91;;;9.66;44.44
8366;BME280;4220;42.502;24.188;2023-02-22T02:44:27;95115.91;;;9.71;44.31
8366;BME280;4220;42.502;24.188;2023-02-22T02:47:00;95124.84;;;9.76;44.35
8366;BME280;4220;42.502;24.188;2023-02-22T02:49:33;95122.59;;;9.80;44.29
8366;BME280;4220;42.502;24.188;2023-02-22T02:52:03;95126.16;;;9.92;44.14
8366;BME280;4220;42.502;24.188;2023-02-22T02:54:32;95126.16;;;9.92;43.70
8366;BME280;4220;42.502;24.188;2023-02-22T02:57:01;95114.59;;;9.86;44.59
8366;BME280;4220;42.502;24.188;2023-02-22T02:59:30;95122.75;;;9.85;44.57
8366;BME280;4220;42.502;24.188;2023-02-22T03:02:10;95120.78;;;9.74;44.75
8366;BME280;4220;42.502;24.188;2023-02-22T03:04:57;95119.50;;;9.83;44.49
8366;BME280;4220;42.502;24.188;2023-02-22T03:07:39;95123.22;;;9.75;44.53
8366;BME280;4220;42.502;24.188;2023-02-22T03:10:32;95120.19;;;9.72;44.46
8366;BME280;4220;42.502;24.188;2023-02-22T03:13:08;95072.34;;;9.42;44.51
8366;BME280;4220;42.502;24.188;2023-02-22T03:15:49;95120.78;;;9.74;44.90
8366;BME280;4220;42.502;24.188;2023-02-22T03:18:24;95120.09;;;9.60;45.52
8366;BME280;4220;42.502;24.188;2023-02-22T03:20:59;95122.13;;;9.58;45.56
8366;BME280;4220;42.502;24.188;2023-02-22T03:23:29;95125.84;;;9.51;46.26
8366;BME280;4220;42.502;24.188;2023-02-22T03:26:01;95126.66;;;9.51;46.29
8366;BME280;4220;42.502;24.188;2023-02-22T03:28:29;95132.09;;;9.56;46.62
8366;BME280;4220;42.502;24.188;2023-02-22T03:30:59;95133.31;;;9.60;46.37
8366;BME280;4220;42.502;24.188;2023-02-22T03:33:31;95134.13;;;9.61;47.03
8366;BME280;4220;42.502;24.188;2023-02-22T03:36:06;95129.38;;;9.69;46.94
8366;BME280;4220;42.502;24.188;2023-02-22T03:38:36;95127.09;;;9.73;47.04
8366;BME280;4220;42.502;24.188;2023-02-22T03:41:06;95151.50;;;9.81;46.68
8366;BME280;4220;42.502;24.188;2023-02-22T03:43:38;95128.41;;;9.88;46.53
8366;BME280;4220;42.502;24.188;2023-02-22T03:46:06;95146.31;;;9.93;46.70
8366;BME280;4220;42.502;24.188;2023-02-22T03:48:38;95095.38;;;9.66;46.80
8366;BME280;4220;42.502;24.188;2023-02-22T03:51:11;95125.78;;;9.88;46.72
8366;BME280;4220;42.502;24.188;2023-02-22T03:53:40;95131.81;;;9.96;46.38
8366;BME280;4220;42.502;24.188;2023-02-22T03:56:12;95130.38;;;10.00;46.40
8366;BME280;4220;42.502;24.188;2023-02-22T03:58:41;95131.00;;;9.95;46.56
8366;BME280;4220;42.502;24.188;2023-02-22T04:01:11;95138.75;;;9.97;47.05
8366;BME280;4220;42.502;24.188;2023-02-22T04:03:37;95128.75;;;9.99;46.58
8366;BME280;4220;42.502;24.188;2023-02-22T04:06:07;95113.34;;;9.89;47.10
8366;BME280;4220;42.502;24.188;2023-02-22T04:08:36;95130.53;;;10.05;47.12
8366;BME280;4220;42.502;24.188;2023-02-22T04:11:03;95126.19;;;10.10;46.22
8366;BME280;4220;42.502;24.188;2023-02-22T04:13:30;95125.88;;;10.00;46.87
8366;BME280;4220;42.502;24.188;2023-02-22T04:15:57;95118.25;;;10.10;46.89
8366;BME280;4220;42.502;24.188;2023-02-22T04:18:24;95125.84;;;10.07;46.45
8366;BME280;4220;42.502;24.188;2023-02-22T04:20:50;95132.06;;;9.94;46.74
8366;BME280;4220;42.502;24.188;2023-02-22T04:23:17;95130.56;;;9.98;46.56
8366;BME280;4220;42.502;24.188;2023-02-22T04:25:45;95132.88;;;9.95;47.10
8366;BME280;4220;42.502;24.188;2023-02-22T04:28:13;95129.56;;;9.74;47.18
8366;BME280;4220;42.502;24.188;2023-02-22T04:30:40;95125.31;;;9.67;47.21
8366;BME280;4220;42.502;24.188;2023-02-22T04:33:08;95132.53;;;9.84;47.52
8366;BME280;4220;42.502;24.188;2023-02-22T04:35:36;95141.06;;;9.86;46.87
8366;BME280;4220;42.502;24.188;2023-02-22T04:38:03;95129.63;;;9.68;47.02
8366;BME280;4220;42.502;24.188;2023-02-22T04:40:30;95136.28;;;9.46;47.64
8366;BME280;4220;42.502;24.188;2023-02-22T04:42:58;95127.94;;;9.42;47.84
8366;BME280;4220;42.502;24.188;2023-02-22T04:45:26;95130.19;;;9.39;47.94
8366;BME280;4220;42.502;24.188;2023-02-22T04:47:52;95126.66;;;9.51;48.08
8366;BME280;4220;42.502;24.188;2023-02-22T04:50:19;95118.81;;;9.38;48.19
8366;BME280;4220;42.502;24.188;2023-02-22T04:52:46;95130.50;;;9.17;49.03
8366;BME280;4220;42.502;24.188;2023-02-22T04:55:13;95130.13;;;9.14;48.28
8366;BME280;4220;42.502;24.188;2023-02-22T04:57:41;95133.75;;;9.26;48.57
8366;BME280;4220;42.502;24.188;2023-02-22T05:00:14;95133.22;;;9.42;48.26
8366;BME280;4220;42.502;24.188;2023-02-22T05:02:41;95133.28;;;9.36;48.78
8366;BME280;4220;42.502;24.188;2023-02-22T05:05:08;95120.00;;;9.42;48.65
8366;BME280;4220;42.502;24.188;2023-02-22T05:07:35;95129.13;;;9.46;48.29
8366;BME280;4220;42.502;24.188;2023-02-22T05:10:02;95124.88;;;9.45;48.45
8366;BME280;4220;42.502;24.188;2023-02-22T05:12:29;95085.41;;;9.06;48.86
8366;BME280;4220;42.502;24.188;2023-02-22T05:14:56;95132.34;;;9.17;49.22
8366;BME280;4220;42.502;24.188;2023-02-22T05:17:24;95120.75;;;9.18;49.40
8366;BME280;4220;42.502;24.188;2023-02-22T05:19:51;95130.63;;;9.36;49.09
8366;BME280;4220;42.502;24.188;2023-02-22T05:22:18;95134.94;;;9.30;48.90
8366;BME280;4220;42.502;24.188;2023-02-22T05:24:44;95136.03;;;9.16;49.03
8366;BME280;4220;42.502;24.188;2023-02-22T05:27:11;95132.91;;;9.26;49.39
8366;BME280;4220;42.502;24.188;2023-02-22T05:29:38;95146.38;;;9.17;49.81
8366;BME280;4220;42.502;24.188;2023-02-22T05:32:05;95136.69;;;9.05;50.27
8366;BME280;4220;42.502;24.188;2023-02-22T05:34:33;95144.38;;;9.13;49.95
8366;BME280;4220;42.502;24.188;2023-02-22T05:37:00;95140.78;;;8.94;50.53
8366;BME280;4220;42.502;24.188;2023-02-22T05:39:27;95145.84;;;9.02;50.33
8366;BME280;4220;42.502;24.188;2023-02-22T05:41:54;95146.94;;;8.88;50.45
8366;BME280;4220;42.502;24.188;2023-02-22T05:44:21;95153.81;;;8.96;50.50
8366;BME280;4220;42.502;24.188;2023-02-22T05:46:48;95139.41;;;8.92;50.38
8366;BME280;4220;42.502;24.188;2023-02-22T05:49:15;95153.03;;;8.82;51.74
8366;BME280;4220;42.502;24.188;2023-02-22T05:51:43;95159.81;;;8.59;52.11
8366;BME280;4220;42.502;24.188;2023-02-22T05:54:10;95155.19;;;8.41;52.30
8366;BME280;4220;42.502;24.188;2023-02-22T05:56:37;95163.72;;;8.36;52.53
8366;BME280;4220;42.502;24.188;2023-02-22T05:59:03;95159.25;;;8.43;52.35
8366;BME280;4220;42.502;24.188;2023-02-22T06:01:30;95158.03;;;8.52;52.67
8366;BME280;4220;42.502;24.188;2023-02-22T06:03:57;95180.19;;;8.51;52.14
8366;BME280;4220;42.502;24.188;2023-02-22T06:06:24;95172.22;;;8.58;52.25
8366;BME280;4220;42.502;24.188;2023-02-22T06:08:52;95171.25;;;8.52;52.50
8366;BME280;4220;42.502;24.188;2023-02-22T06:11:19;95168.75;;;8.71;51.92
8366;BME280;4220;42.502;24.188;2023-02-22T06:13:49;95179.44;;;8.95;51.52
8366;BME280;4220;42.502;24.188;2023-02-22T06:16:17;95181.13;;;8.83;51.87
8366;BME280;4220;42.502;24.188;2023-02-22T06:18:45;95188.19;;;8.96;51.93
8366;BME280;4220;42.502;24.188;2023-02-22T06:21:12;95183.94;;;8.88;52.08
8366;BME280;4220;42.502;24.188;2023-02-22T06:23:39;95175.56;;;8.98;51.54
8366;BME280;4220;42.502;24.188;2023-02-22T06:26:07;95179.84;;;8.92;51.82
8366;BME280;4220;42.502;24.188;2023-02-22T06:28:33;95180.81;;;9.11;51.46
8366;BME280;4220;42.502;24.188;2023-02-22T06:31:01;95182.59;;;9.24;51.00
8366;BME280;4220;42.502;24.188;2023-02-22T06:33:27;95187.84;;;9.30;50.48
8366;BME280;4220;42.502;24.188;2023-02-22T06:35:54;95146.63;;;9.09;50.85
8366;BME280;4220;42.502;24.188;2023-02-22T06:38:22;95188.94;;;9.60;50.09
8366;BME280;4220;42.502;24.188;2023-02-22T06:40:49;95182.72;;;9.73;50.07
8366;BME280;4220;42.502;24.188;2023-02-22T06:43:18;95185.44;;;9.91;49.36
8366;BME280;4220;42.502;24.188;2023-02-22T06:45:44;95182.44;;;9.88;50.28
8366;BME280;4220;42.502;24.188;2023-02-22T06:48:11;95182.81;;;9.91;49.59
8366;BME280;4220;42.502;24.188;2023-02-22T06:50:38;95180.88;;;10.05;49.48
8366;BME280;4220;42.502;24.188;2023-02-22T06:53:05;95184.06;;;10.63;47.12
8366;BME280;4220;42.502;24.188;2023-02-22T06:55:33;95204.94;;;11.13;45.71
8366;BME280;4220;42.502;24.188;2023-02-22T06:58:00;95184.13;;;11.47;45.14
8366;BME280;4220;42.502;24.188;2023-02-22T07:00:30;95185.88;;;11.71;44.15
8366;BME280;4220;42.502;24.188;2023-02-22T07:02:58;95107.28;;;11.34;43.91
8366;BME280;4220;42.502;24.188;2023-02-22T07:05:26;95198.63;;;11.92;43.68
8366;BME280;4220;42.502;24.188;2023-02-22T07:08:00;95191.38;;;11.99;43.49
8366;BME280;4220;42.502;24.188;2023-02-22T07:10:29;95180.75;;;11.99;43.43
8366;BME280;4220;42.502;24.188;2023-02-22T07:12:56;95194.88;;;12.11;43.41
8366;BME280;4220;42.502;24.188;2023-02-22T07:15:24;95186.34;;;12.21;43.22
8366;BME280;4220;42.502;24.188;2023-02-22T07:17:53;95200.94;;;12.30;42.65
8366;BME280;4220;42.502;24.188;2023-02-22T07:20:22;95186.69;;;12.36;42.71
8366;BME280;4220;42.502;24.188;2023-02-22T07:22:49;95136.06;;;12.19;42.52
8366;BME280;4220;42.502;24.188;2023-02-22T07:25:16;95190.09;;;12.55;41.96
8366;BME280;4220;42.502;24.188;2023-02-22T07:27:44;95181.03;;;12.56;42.34
8366;BME280;4220;42.502;24.188;2023-02-22T07:30:16;95211.38;;;12.66;42.23
8366;BME280;4220;42.502;24.188;2023-02-22T07:32:43;95196.34;;;12.72;42.22
8366;BME280;4220;42.502;24.188;2023-02-22T07:35:15;95174.81;;;12.73;41.96
8366;BME280;4220;42.502;24.188;2023-02-22T07:37:42;95151.31;;;12.59;42.19
8366;BME280;4220;42.502;24.188;2023-02-22T07:40:09;95171.44;;;12.89;42.04
8366;BME280;4220;42.502;24.188;2023-02-22T07:42:50;95166.34;;;12.99;41.52
8366;BME280;4220;42.502;24.188;2023-02-22T07:45:17;95178.28;;;13.08;41.67
8366;BME280;4220;42.502;24.188;2023-02-22T07:47:45;95182.53;;;13.21;41.65
8366;BME280;4220;42.502;24.188;2023-02-22T07:50:12;95183.78;;;13.30;40.91
8366;BME280;4220;42.502;24.188;2023-02-22T07:52:44;95179.13;;;13.37;41.21
8366;BME280;4220;42.502;24.188;2023-02-22T07:55:12;95192.19;;;13.50;40.49
8366;BME280;4220;42.502;24.188;2023-02-22T07:57:39;95180.66;;;13.61;40.49
8366;BME280;4220;42.502;24.188;2023-02-22T08:00:07;95189.94;;;13.59;39.93
8366;BME280;4220;42.502;24.188;2023-02-22T08:02:34;95178.72;;;13.57;40.50
8366;BME280;4220;42.502;24.188;2023-02-22T08:05:00;95187.25;;;13.70;39.88
8366;BME280;4220;42.502;24.188;2023-02-22T08:07:27;95168.59;;;13.70;40.21
8366;BME280;4220;42.502;24.188;2023-02-22T08:09:55;95193.44;;;13.88;39.71
8366;BME280;4220;42.502;24.188;2023-02-22T08:12:22;95167.09;;;13.91;39.84
8366;BME280;4220;42.502;24.188;2023-02-22T08:14:49;95170.75;;;14.02;39.62
8366;BME280;4220;42.502;24.188;2023-02-22T08:17:16;95165.41;;;14.02;39.38
8366;BME280;4220;42.502;24.188;2023-02-22T08:19:43;95173.66;;;14.00;39.37
8366;BME280;4220;42.502;24.188;2023-02-22T08:22:09;95172.69;;;14.06;39.23
8366;BME280;4220;42.502;24.188;2023-02-22T08:24:36;95169.38;;;14.16;39.33
8366;BME280;4220;42.502;24.188;2023-02-22T08:27:04;95178.28;;;14.21;39.19
8366;BME280;4220;42.502;24.188;2023-02-22T08:29:31;95161.56;;;14.26;39.12
8366;BME280;4220;42.502;24.188;2023-02-22T08:31:58;95175.34;;;14.34;39.15
8366;BME280;4220;42.502;24.188;2023-02-22T08:34:26;95166.13;;;14.42;38.81
8366;BME280;4220;42.502;24.188;2023-02-22T08:36:53;95168.06;;;14.47;38.80
8366;BME280;4220;42.502;24.188;2023-02-22T08:39:20;95164.66;;;14.51;38.83
8366;BME280;4220;42.502;24.188;2023-02-22T08:41:47;95158.09;;;14.59;38.79
8366;BME280;4220;42.502;24.188;2023-02-22T08:44:15;95165.94;;;14.65;38.51
8366;BME280;4220;42.502;24.188;2023-02-22T08:46:42;95162.84;;;14.73;38.85
8366;BME280;4220;42.502;24.188;2023-02-22T08:49:08;95165.91;;;14.82;37.90
8366;BME280;4220;42.502;24.188;2023-02-22T08:51:36;95167.91;;;14.91;38.61
8366;BME280;4220;42.502;24.188;2023-02-22T08:54:03;95167.63;;;15.10;37.90
8366;BME280;4220;42.502;24.188;2023-02-22T08:56:31;95172.84;;;15.21;37.26
8366;BME280;4220;42.502;24.188;2023-02-22T08:58:58;95168.94;;;15.07;37.02
8366;BME280;4220;42.502;24.188;2023-02-22T09:01:26;95153.78;;;15.13;37.42
8366;BME280;4220;42.502;24.188;2023-02-22T09:03:54;95154.16;;;15.21;36.85
8366;BME280;4220;42.502;24.188;2023-02-22T09:06:22;95169.28;;;15.32;37.53
8366;BME280;4220;42.502;24.188;2023-02-22T09:08:48;95161.38;;;15.42;37.25
8366;BME280;4220;42.502;24.188;2023-02-22T09:11:15;95146.94;;;15.43;36.92
8366;BME280;4220;42.502;24.188;2023-02-22T09:13:43;95162.63;;;15.56;36.69
8366;BME280;4220;42.502;24.188;2023-02-22T09:16:10;95151.34;;;15.49;36.49
8366;BME280;4220;42.502;24.188;2023-02-22T09:18:38;95154.41;;;15.63;36.10
8366;BME280;4220;42.502;24.188;2023-02-22T09:21:05;95161.94;;;15.66;36.47
8366;BME280;4220;42.502;24.188;2023-02-22T09:23:31;95169.47;;;15.69;36.07
8366;BME280;4220;42.502;24.188;2023-02-22T09:25:59;95161.94;;;15.66;35.70
8366;BME280;4220;42.502;24.188;2023-02-22T09:28:26;95161.22;;;15.76;36.22
8366;BME280;4220;42.502;24.188;2023-02-22T09:30:53;95145.13;;;15.70;35.69
8366;BME280;4220;42.502;24.188;2023-02-22T09:33:20;95152.44;;;15.80;35.68
8366;BME280;4220;42.502;24.188;2023-02-22T09:35:49;95142.88;;;15.84;35.79
8366;BME280;4220;42.502;24.188;2023-02-22T09:38:18;95139.72;;;15.92;36.06
8366;BME280;4220;42.502;24.188;2023-02-22T09:40:49;95153.06;;;16.14;35.56
8366;BME280;4220;42.502;24.188;2023-02-22T09:43:26;95127.88;;;16.10;35.58
8366;BME280;4220;42.502;24.188;2023-02-22T09:46:17;95157.13;;;16.16;35.40
8366;BME280;4220;42.502;24.188;2023-02-22T09:49:01;95138.38;;;16.16;35.81
8366;BME280;4220;42.502;24.188;2023-02-22T09:51:36;95142.75;;;16.27;35.54
8366;BME280;4220;42.502;24.188;2023-02-22T09:54:10;95135.31;;;16.34;35.33
8366;BME280;4220;42.502;24.188;2023-02-22T09:56:43;95141.34;;;16.52;35.42
8366;BME280;4220;42.502;24.188;2023-02-22T09:59:16;95135.03;;;16.63;35.13
8366;BME280;4220;42.502;24.188;2023-02-22T10:01:49;95139.88;;;16.66;35.44
8366;BME280;4220;42.502;24.188;2023-02-22T10:04:22;95131.84;;;16.71;34.90
8366;BME280;4220;42.502;24.188;2023-02-22T10:07:02;95125.47;;;16.77;34.92
8366;BME280;4220;42.502;24.188;2023-02-22T10:09:33;95115.78;;;16.66;34.52
8366;BME280;4220;42.502;24.188;2023-02-22T10:12:08;95128.34;;;16.65;34.69
8366;BME280;4220;42.502;24.188;2023-02-22T10:14:46;95123.91;;;16.86;35.11
8366;BME280;4220;42.502;24.188;2023-02-22T10:17:23;95119.97;;;17.04;34.34
8366;BME280;4220;42.502;24.188;2023-02-22T10:20:02;95119.22;;;17.13;33.92
8366;BME280;4220;42.502;24.188;2023-02-22T10:22:53;95115.81;;;17.33;33.72
8366;BME280;4220;42.502;24.188;2023-02-22T10:25:24;95102.69;;;17.26;33.44
8366;BME280;4220;42.502;24.188;2023-02-22T10:27:55;95102.72;;;17.36;33.42
8366;BME280;4220;42.502;24.188;2023-02-22T10:30:25;95093.56;;;17.32;33.41
8366;BME280;4220;42.502;24.188;2023-02-22T10:32:57;95088.72;;;17.24;33.39
8366;BME280;4220;42.502;24.188;2023-02-22T10:35:28;95106.38;;;17.20;33.54
8366;BME280;4220;42.502;24.188;2023-02-22T10:37:58;95080.97;;;17.28;33.73
8366;BME280;4220;42.502;24.188;2023-02-22T10:40:29;95088.81;;;17.44;34.00
8366;BME280;4220;42.502;24.188;2023-02-22T10:43:01;95077.00;;;17.45;32.89
8366;BME280;4220;42.502;24.188;2023-02-22T10:45:29;95071.41;;;17.52;33.13
8366;BME280;4220;42.502;24.188;2023-02-22T10:47:59;95061.81;;;17.71;32.70
8366;BME280;4220;42.502;24.188;2023-02-22T10:50:29;95066.88;;;17.68;32.29
8366;BME280;4220;42.502;24.188;2023-02-22T10:52:58;95064.41;;;17.46;31.77
8366;BME280;4220;42.502;24.188;2023-02-22T10:55:25;95051.28;;;17.54;32.66
8366;BME280;4220;42.502;24.188;2023-02-22T10:58:01;95050.53;;;17.74;32.28
8366;BME280;4220;42.502;24.188;2023-02-22T11:00:31;95041.69;;;17.69;32.22
8366;BME280;4220;42.502;24.188;2023-02-22T11:03:03;95045.47;;;17.88;32.21
8366;BME280;4220;42.502;24.188;2023-02-22T11:05:34;95040.09;;;17.98;31.10
8366;BME280;4220;42.502;24.188;2023-02-22T11:08:30;95031.22;;;17.77;31.62
8366;BME280;4220;42.502;24.188;2023-02-22T11:11:00;95042.25;;;18.06;31.45
8366;BME280;4220;42.502;24.188;2023-02-22T11:13:30;95045.19;;;17.99;31.28
8366;BME280;4220;42.502;24.188;2023-02-22T11:16:00;95043.31;;;18.20;31.21
8366;BME280;4220;42.502;24.188;2023-02-22T11:18:30;95054.03;;;18.35;31.03
8366;BME280;4220;42.502;24.188;2023-02-22T11:21:06;95025.03;;;18.32;31.10
8366;BME280;4220;42.502;24.188;2023-02-22T11:23:37;95030.41;;;18.32;31.40
8366;BME280;4220;42.502;24.188;2023-02-22T11:26:08;95026.13;;;18.26;31.01
8366;BME280;4220;42.502;24.188;2023-02-22T11:28:42;95036.06;;;18.00;31.11
8366;BME280;4220;42.502;24.188;2023-02-22T11:31:16;95032.03;;;18.23;30.70
8366;BME280;4220;42.502;24.188;2023-02-22T11:33:51;95030.94;;;18.39;30.57
8366;BME280;4220;42.502;24.188;2023-02-22T11:36:31;95021.81;;;18.40;30.60
8366;BME280;4220;42.502;24.188;2023-02-22T11:39:04;95012.13;;;18.59;30.23
8366;BME280;4220;42.502;24.188;2023-02-22T11:41:33;95011.28;;;18.74;29.76
8366;BME280;4220;42.502;24.188;2023-02-22T11:44:13;95021.41;;;18.92;29.74
8366;BME280;4220;42.502;24.188;2023-02-22T11:46:41;95005.19;;;19.12;29.71
8366;BME280;4220;42.502;24.188;2023-02-22T11:49:10;95017.25;;;19.25;29.30
8366;BME280;4220;42.502;24.188;2023-02-22T11:51:48;95014.91;;;19.08;29.33
8366;BME280;4220;42.502;24.188;2023-02-22T11:54:31;95001.25;;;18.94;29.76
8366;BME280;4220;42.502;24.188;2023-02-22T11:57:18;95005.91;;;19.38;29.48
8366;BME280;4220;42.502;24.188;2023-02-22T12:00:00;95011.66;;;19.65;29.25
8366;BME280;4220;42.502;24.188;2023-02-22T12:02:46;94997.22;;;19.90;29.13
8366;BME280;4220;42.502;24.188;2023-02-22T12:05:29;94982.81;;;20.04;28.55
8366;BME280;4220;42.502;24.188;2023-02-22T12:08:12;95003.53;;;20.38;28.47
8366;BME280;4220;42.502;24.188;2023-02-22T12:10:50;94986.38;;;20.57;28.46
8366;BME280;4220;42.502;24.188;2023-02-22T12:13:29;94964.34;;;20.21;28.47
8366;BME280;4220;42.502;24.188;2023-02-22T12:16:11;94997.88;;;20.05;28.86
8366;BME280;4220;42.502;24.188;2023-02-22T12:18:50;94991.41;;;20.06;29.38
8366;BME280;4220;42.502;24.188;2023-02-22T12:21:22;94988.28;;;19.94;29.00
8366;BME280;4220;42.502;24.188;2023-02-22T12:23:58;94976.84;;;19.79;29.44
8366;BME280;4220;42.502;24.188;2023-02-22T12:26:34;94974.28;;;19.97;28.89
8366;BME280;4220;42.502;24.188;2023-02-22T12:29:06;94970.88;;;19.87;29.13
8366;BME280;4220;42.502;24.188;2023-02-22T12:31:41;94980.56;;;20.16;29.24
8366;BME280;4220;42.502;24.188;2023-02-22T12:34:15;94988.50;;;20.37;28.87
8366;BME280;4220;42.502;24.188;2023-02-22T12:36:48;94976.75;;;20.17;28.33
8366;BME280;4220;42.502;24.188;2023-02-22T12:39:26;94980.63;;;20.40;28.52
8366;BME280;4220;42.502;24.188;2023-02-22T12:42:03;94965.25;;;20.12;28.51
8366;BME280;4220;42.502;24.188;2023-02-22T12:44:34;94951.97;;;20.20;28.56
8366;BME280;4220;42.502;24.188;2023-02-22T12:47:03;94970.66;;;20.41;28.27
8366;BME280;4220;42.502;24.188;2023-02-22T12:49:37;94943.88;;;20.20;28.64
8366;BME280;4220;42.502;24.188;2023-02-22T12:52:09;94966.75;;;20.52;28.18
8366;BME280;4220;42.502;24.188;2023-02-22T12:54:45;94937.16;;;20.23;28.37
8366;BME280;4220;42.502;24.188;2023-02-22T12:57:20;94961.41;;;20.47;28.18
8366;BME280;4220;42.502;24.188;2023-02-22T12:59:56;94954.16;;;20.71;28.31
8366;BME280;4220;42.502;24.188;2023-02-22T13:02:27;94955.97;;;20.52;28.09
8366;BME280;4220;42.502;24.188;2023-02-22T13:04:57;94954.38;;;20.51;28.24
8366;BME280;4220;42.502;24.188;2023-02-22T13:07:37;94959.97;;;21.02;27.63
8366;BME280;4220;42.502;24.188;2023-02-22T13:10:28;94944.28;;;20.85;27.10
8366;BME280;4220;42.502;24.188;2023-02-22T13:13:04;94944.88;;;20.58;27.86
8366;BME280;4220;42.502;24.188;2023-02-22T13:15:41;94947.06;;;20.56;27.91
8366;BME280;4220;42.502;24.188;2023-02-22T13:18:14;94945.31;;;21.13;27.18
8366;BME280;4220;42.502;24.188;2023-02-22T13:20:46;94947.31;;;21.21;27.23
8366;BME280;4220;42.502;24.188;2023-02-22T13:23:18;94942.25;;;21.19;27.45
8366;BME280;4220;42.502;24.188;2023-02-22T13:25:53;94933.50;;;20.85;27.54
8366;BME280;4220;42.502;24.188;2023-02-22T13:28:29;94939.69;;;20.62;27.89
8366;BME280;4220;42.502;24.188;2023-02-22T13:31:12;94905.66;;;20.47;27.96
8366;BME280;4220;42.502;24.188;2023-02-22T13:34:03;94939.97;;;21.26;27.26
8366;BME280;4220;42.502;24.188;2023-02-22T13:36:36;94927.22;;;21.83;26.85